首页
METAR-TAF:

METAR-TAF

机场 :

皮斯里弗, 艾伯塔, 加拿大

纬度: 56-14N, 经度: 117-26W, 海拔: 571米

当前天气观测

该预报发布于32分钟前的11:00 UTC
风速3节,风向北转东北
温度 -25°C
湿度 76%
气压 1023 hPa
能見度: 24.1公里
少量云层高于18000英尺

METAR: CYPE 191100Z 02003KT 15SM FEW180 M25/M28 A3020 RMK AC2 SLP297

时间: 04:32 (11:32 UTC)

预报

该预报发布于4小时和54分钟前的06:38 UTC
预报有效从19日的 07点(UTC)到 19日的 19点(UTC)
风速6节,风向东转东北
能見度: 10公里
散云层高于5000英尺
散云层高于15000英尺
短暂存在
从 19日的 07点(UTC)到 19日的 14点(UTC)
多云层高于5000英尺
多云层高于12000英尺
从 19日的 1400点(UTC)
风速6节,风向
能見度: 10公里
散云层高于8000英尺
多云层高于14000英尺
多云层高于24000英尺

TAF: CYPE 190638Z 1907/1919 06006KT P6SM SCT050 SCT150 TEMPO 1907/1914 BKN050 BKN120 FM191400 08006KT P6SM SCT080 BKN140 BKN240 RMK NXT FCST BY 191300Z

超过4000个机场的气象观测和天气预报(METAR&TAF报告)。

可查询的气象台以黄色和红色小点在地图上表示。

将鼠标移到小点上方,可查看气象台名称。

然后点击查看天气观测和预报。

如需切换地图:点击带黑十字的绿色按钮放大地图;点击带横线的绿色按钮缩小地图;或者点击绿色箭头查看邻近地区的地图。


METAR-TAF: